createdAt,value
2022-11-14T00:00:02.638Z,5.97
2022-11-14T00:02:50.141Z,6.45
2022-11-14T00:05:41.273Z,6.60
2022-11-14T00:08:29.342Z,6.78
2022-11-14T00:11:16.668Z,6.05
2022-11-14T00:14:03.439Z,7.63
2022-11-14T00:16:50.628Z,8.23
2022-11-14T00:19:37.666Z,6.50
2022-11-14T00:22:24.584Z,7.07
2022-11-14T00:25:13.574Z,5.90
2022-11-14T00:28:00.649Z,6.28
2022-11-14T00:30:52.664Z,6.85
2022-11-14T00:33:39.812Z,6.30
2022-11-14T00:36:26.673Z,6.60
2022-11-14T00:39:15.020Z,6.88
2022-11-14T00:42:03.037Z,6.40
2022-11-14T00:44:49.920Z,6.38
2022-11-14T00:47:36.874Z,7.03
2022-11-14T00:50:23.902Z,6.50
2022-11-14T00:53:10.981Z,6.82
2022-11-14T00:55:58.160Z,6.55
2022-11-14T00:58:46.226Z,6.68
2022-11-14T01:01:33.084Z,7.10
2022-11-14T01:04:20.112Z,6.50
2022-11-14T01:07:07.132Z,6.80
2022-11-14T01:09:54.352Z,6.63
2022-11-14T01:12:41.255Z,7.13
2022-11-14T01:15:29.182Z,6.63
2022-11-14T01:18:18.461Z,6.65
2022-11-14T01:21:06.663Z,6.93
2022-11-14T01:23:53.369Z,6.43
2022-11-14T01:26:40.397Z,6.20
2022-11-14T01:29:27.641Z,6.55
2022-11-14T01:32:15.479Z,7.70
2022-11-14T01:35:02.087Z,7.23
2022-11-14T01:37:49.259Z,6.47
2022-11-14T01:40:36.097Z,6.53
2022-11-14T01:43:27.713Z,6.32
2022-11-14T01:46:18.506Z,6.40
2022-11-14T01:49:12.620Z,6.30
2022-11-14T01:52:03.441Z,6.72
2022-11-14T01:54:53.618Z,6.60
2022-11-14T01:57:45.215Z,6.47
2022-11-14T02:00:32.120Z,6.72
2022-11-14T02:03:20.158Z,6.40
2022-11-14T02:06:10.468Z,6.55
2022-11-14T02:08:58.911Z,7.30
2022-11-14T02:11:47.204Z,7.07
2022-11-14T02:14:35.634Z,6.40
2022-11-14T02:17:29.598Z,6.05
2022-11-14T02:20:21.547Z,6.70
2022-11-14T02:23:08.535Z,7.15
2022-11-14T02:25:55.549Z,6.45
2022-11-14T02:28:42.481Z,6.00
2022-11-14T02:31:29.522Z,6.53
2022-11-14T02:34:19.949Z,6.28
2022-11-14T02:37:08.676Z,6.32
2022-11-14T02:39:55.580Z,6.30
2022-11-14T02:42:42.491Z,5.97
2022-11-14T02:45:29.288Z,5.57
2022-11-14T02:48:15.985Z,6.07
2022-11-14T02:51:03.310Z,6.10
2022-11-14T02:53:51.658Z,6.10
2022-11-14T02:56:38.470Z,6.28
2022-11-14T02:59:25.296Z,6.20
2022-11-14T03:02:12.629Z,5.78
2022-11-14T03:04:59.446Z,6.35
2022-11-14T03:07:46.149Z,6.30
2022-11-14T03:10:34.271Z,6.32
2022-11-14T03:13:21.607Z,7.07
2022-11-14T03:16:10.139Z,5.97
2022-11-14T03:18:56.970Z,6.15
2022-11-14T03:21:44.185Z,6.82
2022-11-14T03:24:31.213Z,6.60
2022-11-14T03:27:19.352Z,6.63
2022-11-14T03:30:06.602Z,6.22
2022-11-14T03:32:53.455Z,6.13
2022-11-14T03:35:43.795Z,6.50
2022-11-14T03:38:30.786Z,6.32
2022-11-14T03:41:17.912Z,5.93
2022-11-14T03:44:06.181Z,6.55
2022-11-14T03:46:53.231Z,5.55
2022-11-14T03:49:40.691Z,6.38
2022-11-14T03:52:27.623Z,6.50
2022-11-14T03:55:15.596Z,6.72
2022-11-14T03:58:02.919Z,6.47
2022-11-14T04:00:51.167Z,6.28
2022-11-14T04:03:37.714Z,6.65
2022-11-14T04:06:24.593Z,6.72
2022-11-14T04:09:11.659Z,6.47
2022-11-14T04:11:58.583Z,6.32
2022-11-14T04:14:45.830Z,6.05
2022-11-14T04:17:39.522Z,6.18
2022-11-14T04:20:26.859Z,5.90
2022-11-14T04:23:13.751Z,5.72
2022-11-14T04:26:00.709Z,6.72
2022-11-14T04:28:47.390Z,5.90
2022-11-14T04:31:33.866Z,6.18
2022-11-14T04:34:21.749Z,6.20
2022-11-14T04:37:08.437Z,5.70
2022-11-14T04:39:58.585Z,5.75
2022-11-14T04:42:45.203Z,5.70
2022-11-14T04:45:32.111Z,6.22
2022-11-14T04:48:19.082Z,6.07
2022-11-14T04:51:07.172Z,6.45
2022-11-14T04:53:54.088Z,7.00
2022-11-14T04:56:41.104Z,6.72
2022-11-14T04:59:27.777Z,6.10
2022-11-14T05:02:14.898Z,5.80
2022-11-14T05:05:03.956Z,5.88
2022-11-14T05:07:52.264Z,5.88
2022-11-14T05:10:39.453Z,6.38
2022-11-14T05:13:26.520Z,6.28
2022-11-14T05:16:13.838Z,6.05
2022-11-14T05:19:00.790Z,6.03
2022-11-14T05:21:48.208Z,6.13
2022-11-14T05:24:36.959Z,6.13
2022-11-14T05:27:23.967Z,5.43
2022-11-14T05:30:12.378Z,6.20
2022-11-14T05:33:00.868Z,5.90
2022-11-14T05:35:47.944Z,6.13
2022-11-14T05:38:35.349Z,6.25
2022-11-14T05:41:23.595Z,6.13
2022-11-14T05:44:10.891Z,6.10
2022-11-14T05:46:58.245Z,6.10
2022-11-14T05:49:45.439Z,6.13
2022-11-14T05:52:32.983Z,6.13
2022-11-14T05:55:24.619Z,5.13
2022-11-14T05:58:12.939Z,5.47
2022-11-14T06:01:15.543Z,5.28
2022-11-14T06:04:18.161Z,5.55
2022-11-14T06:07:25.543Z,5.40
2022-11-14T06:10:33.934Z,4.95
2022-11-14T06:13:24.328Z,5.28
2022-11-14T06:16:12.899Z,5.15
2022-11-14T06:18:59.753Z,4.97
2022-11-14T06:21:46.763Z,4.80
2022-11-14T06:24:34.133Z,5.07
2022-11-14T06:27:21.172Z,4.80
2022-11-14T06:30:13.412Z,4.88
2022-11-14T06:33:00.509Z,5.50
2022-11-14T06:35:47.805Z,5.05
2022-11-14T06:38:35.978Z,5.03
2022-11-14T06:41:26.878Z,5.05
2022-11-14T06:44:15.138Z,4.93
2022-11-14T06:47:03.586Z,5.30
2022-11-14T06:50:05.254Z,6.30
2022-11-14T06:52:52.700Z,6.13
2022-11-14T06:55:42.006Z,5.03
2022-11-14T06:58:29.980Z,5.68
2022-11-14T07:01:19.170Z,5.47
2022-11-14T07:04:13.689Z,5.07
2022-11-14T07:07:00.667Z,5.00
2022-11-14T07:09:48.090Z,5.30
2022-11-14T07:12:35.403Z,4.60
2022-11-14T07:15:22.681Z,5.07
2022-11-14T07:18:10.206Z,5.43
2022-11-14T07:21:13.340Z,5.43
2022-11-14T07:24:00.982Z,5.80
2022-11-14T07:26:48.326Z,5.47
2022-11-14T07:29:35.340Z,5.90
2022-11-14T07:32:22.518Z,6.18
2022-11-14T07:35:09.582Z,4.82
2022-11-14T07:38:03.371Z,4.80
2022-11-14T07:40:59.623Z,4.85
2022-11-14T07:43:47.689Z,5.05
2022-11-14T07:46:34.400Z,5.55
2022-11-14T07:49:21.420Z,4.43
2022-11-14T07:52:08.584Z,4.28
2022-11-14T07:54:56.534Z,4.03
2022-11-14T07:57:48.856Z,4.28
2022-11-14T08:00:36.449Z,4.00
2022-11-14T08:03:23.521Z,3.75
2022-11-14T08:06:13.355Z,3.60
2022-11-14T08:09:00.259Z,4.13
2022-11-14T08:11:51.862Z,3.80
2022-11-14T08:14:38.968Z,4.65
2022-11-14T08:17:26.030Z,4.40
2022-11-14T08:20:13.279Z,3.72
2022-11-14T08:23:04.288Z,4.28
2022-11-14T08:25:51.164Z,3.80
2022-11-14T08:28:38.984Z,3.90
2022-11-14T08:31:26.107Z,3.80
2022-11-14T08:34:13.264Z,3.92
2022-11-14T08:37:00.036Z,3.58
2022-11-14T08:39:47.592Z,4.20
2022-11-14T08:42:34.822Z,3.47
2022-11-14T08:45:22.933Z,3.58
2022-11-14T08:48:10.066Z,4.13
2022-11-14T08:50:56.963Z,4.20
2022-11-14T08:53:44.180Z,4.60
2022-11-14T08:56:31.241Z,3.95
2022-11-14T08:59:18.335Z,5.30
2022-11-14T09:02:06.517Z,4.38
2022-11-14T09:04:53.065Z,4.78
2022-11-14T09:07:40.489Z,4.50
2022-11-14T09:10:27.727Z,4.72
2022-11-14T09:13:15.058Z,4.88
2022-11-14T09:16:05.153Z,5.28
2022-11-14T09:18:53.024Z,5.47
2022-11-14T09:21:40.182Z,5.43
2022-11-14T09:24:27.867Z,5.18
2022-11-14T09:27:15.083Z,5.40
2022-11-14T09:30:02.167Z,5.47
2022-11-14T09:32:49.061Z,5.53
2022-11-14T09:35:38.133Z,5.57
2022-11-14T09:38:25.016Z,5.50
2022-11-14T09:41:25.500Z,4.97
2022-11-14T09:44:29.321Z,5.35
2022-11-14T09:47:20.869Z,5.75
2022-11-14T09:50:14.564Z,5.40
2022-11-14T09:53:06.597Z,6.10
2022-11-14T09:55:55.399Z,5.35
2022-11-14T09:58:43.384Z,5.72
2022-11-14T10:01:38.801Z,5.90
2022-11-14T10:04:33.202Z,5.70
2022-11-14T10:07:28.514Z,6.22
2022-11-14T10:10:26.543Z,5.50
2022-11-14T10:13:27.547Z,5.80
2022-11-14T10:16:19.697Z,5.73
2022-11-14T10:19:16.579Z,5.00
2022-11-14T10:22:19.591Z,5.05
2022-11-14T10:25:22.409Z,4.68
2022-11-14T10:28:34.557Z,4.55
2022-11-14T10:31:32.385Z,4.97
2022-11-14T10:34:28.231Z,4.40
2022-11-14T10:37:23.432Z,4.63
2022-11-14T10:40:24.201Z,4.68
2022-11-14T10:43:22.817Z,4.70
2022-11-14T10:46:14.557Z,5.33
2022-11-14T10:49:01.446Z,4.78
2022-11-14T10:51:52.954Z,4.70
2022-11-14T10:54:46.231Z,4.78
2022-11-14T10:57:35.189Z,5.90
2022-11-14T11:00:24.380Z,5.00
2022-11-14T11:03:11.420Z,5.45
2022-11-14T11:05:58.592Z,5.75
2022-11-14T11:09:03.485Z,5.10
2022-11-14T11:11:58.764Z,5.40
2022-11-14T11:14:51.707Z,5.03
2022-11-14T11:17:54.787Z,6.07
2022-11-14T11:20:43.137Z,5.32
2022-11-14T11:23:32.872Z,6.70
2022-11-14T11:26:22.803Z,6.57
2022-11-14T11:29:20.105Z,6.90
2022-11-14T11:32:08.769Z,6.55
2022-11-14T11:34:59.119Z,6.50
2022-11-14T11:37:54.621Z,6.40
2022-11-14T11:40:41.739Z,6.03
2022-11-14T11:43:52.505Z,6.00
2022-11-14T11:46:49.382Z,6.10
2022-11-14T11:49:47.412Z,5.75
2022-11-14T11:52:44.339Z,5.97
2022-11-14T11:55:33.928Z,5.95
2022-11-14T11:58:26.771Z,5.90
2022-11-14T12:01:19.818Z,6.40
2022-11-14T12:04:07.239Z,6.43
2022-11-14T12:07:00.705Z,5.80
2022-11-14T12:10:11.152Z,6.30
2022-11-14T12:13:54.017Z,5.80
2022-11-14T12:17:27.112Z,6.10
2022-11-14T12:25:16.451Z,5.85
2022-11-14T12:28:37.225Z,5.63
2022-11-14T12:31:45.933Z,5.93
2022-11-14T12:34:43.500Z,5.60
2022-11-14T12:38:02.171Z,4.80
2022-11-14T12:41:05.121Z,5.05
2022-11-14T12:44:29.325Z,5.40
2022-11-14T12:47:45.445Z,5.07
2022-11-14T12:51:01.807Z,5.57
2022-11-14T12:53:54.814Z,5.72
2022-11-14T12:57:12.366Z,6.65
2022-11-14T13:00:08.809Z,6.57
2022-11-14T13:03:22.035Z,5.93
2022-11-14T13:06:26.965Z,6.05
2022-11-14T13:10:02.460Z,5.90
2022-11-14T13:17:22.744Z,4.68
2022-11-14T13:33:41.920Z,4.90
2022-11-14T13:40:48.397Z,4.93
2022-11-14T13:55:41.751Z,5.85
2022-11-14T13:59:22.324Z,5.30
2022-11-14T14:03:05.822Z,5.43
2022-11-14T14:06:09.411Z,5.20
2022-11-14T14:09:34.081Z,5.15
2022-11-14T14:13:09.940Z,5.80
2022-11-14T14:17:28.554Z,4.93
2022-11-14T14:21:06.131Z,5.20
2022-11-14T14:28:10.551Z,5.10
2022-11-14T14:31:11.334Z,5.00
2022-11-14T14:34:03.364Z,5.27
2022-11-14T14:36:56.473Z,4.95
2022-11-14T14:39:45.380Z,5.10
2022-11-14T14:42:43.157Z,5.28
2022-11-14T14:45:44.701Z,5.18
2022-11-14T14:51:58.491Z,5.05
2022-11-14T14:55:00.316Z,5.25
2022-11-14T14:57:50.067Z,5.35
2022-11-14T15:00:43.471Z,5.00
2022-11-14T15:03:37.255Z,5.90
2022-11-14T15:06:31.225Z,5.97
2022-11-14T15:09:25.741Z,5.20
2022-11-14T15:12:14.638Z,5.43
2022-11-14T15:15:18.581Z,6.18
2022-11-14T15:18:09.101Z,5.33
2022-11-14T15:21:17.056Z,5.88
2022-11-14T15:24:16.562Z,5.93
2022-11-14T15:27:12.396Z,5.90
2022-11-14T15:30:02.789Z,5.80
2022-11-14T15:32:53.643Z,5.63
2022-11-14T15:35:41.575Z,5.43
2022-11-14T15:38:43.472Z,5.63
2022-11-14T15:42:19.336Z,5.13
2022-11-14T15:53:18.924Z,4.80
2022-11-14T15:56:06.159Z,5.03
2022-11-14T16:06:18.579Z,5.30
2022-11-14T16:09:05.674Z,5.82
2022-11-14T16:11:52.912Z,5.68
2022-11-14T16:14:43.850Z,5.97
2022-11-14T16:28:47.276Z,6.40
2022-11-14T16:31:55.823Z,6.20
2022-11-14T16:34:43.417Z,6.25
2022-11-14T16:37:30.584Z,5.70
2022-11-14T16:40:19.412Z,6.00
2022-11-14T16:43:06.043Z,5.97
2022-11-14T16:45:53.102Z,5.55
2022-11-14T16:48:41.536Z,5.95
2022-11-14T16:54:38.217Z,5.80
2022-11-14T16:57:25.175Z,6.28
2022-11-14T17:00:13.790Z,5.90
2022-11-14T17:03:03.092Z,5.97
2022-11-14T17:05:53.614Z,6.30
2022-11-14T17:08:43.906Z,6.22
2022-11-14T17:11:31.020Z,6.32
2022-11-14T17:14:18.277Z,5.90
2022-11-14T17:17:07.439Z,7.20
2022-11-14T17:19:57.234Z,7.27
2022-11-14T17:22:48.154Z,6.63
2022-11-14T17:25:35.296Z,6.38
2022-11-14T17:28:22.361Z,6.53
2022-11-14T17:31:12.497Z,6.90
2022-11-14T17:34:00.407Z,6.37
2022-11-14T17:36:48.487Z,6.18
2022-11-14T17:39:36.738Z,6.25
2022-11-14T17:42:26.264Z,6.18
2022-11-14T17:45:13.466Z,5.68
2022-11-14T17:48:00.608Z,7.20
2022-11-14T17:50:47.981Z,6.90
2022-11-14T17:53:37.390Z,7.00
2022-11-14T17:56:26.942Z,6.97
2022-11-14T17:59:16.951Z,7.20
2022-11-14T18:02:04.040Z,6.77
2022-11-14T18:04:52.393Z,7.97
2022-11-14T18:07:39.533Z,8.48
2022-11-14T18:10:26.532Z,8.85
2022-11-14T18:13:14.618Z,8.48
2022-11-14T18:16:05.334Z,9.27
2022-11-14T18:18:56.086Z,10.00
2022-11-14T18:21:49.121Z,10.15
2022-11-14T18:24:43.291Z,8.98
2022-11-14T18:27:30.494Z,9.52
2022-11-14T18:30:40.344Z,10.50
2022-11-14T18:33:26.937Z,10.75
2022-11-14T18:36:34.181Z,12.25
2022-11-14T18:39:26.150Z,10.98
2022-11-14T18:42:12.609Z,11.00
2022-11-14T18:44:58.944Z,11.37
2022-11-14T18:47:53.553Z,10.70
2022-11-14T18:50:40.821Z,9.90
2022-11-14T18:57:17.845Z,9.35
2022-11-14T19:00:05.515Z,9.03
2022-11-14T19:02:56.139Z,10.43
2022-11-14T19:05:43.487Z,10.70
2022-11-14T19:08:30.137Z,8.75
2022-11-14T19:11:38.087Z,7.43
2022-11-14T19:14:27.269Z,8.40
2022-11-14T19:17:14.375Z,7.90
2022-11-14T19:20:02.366Z,8.00
2022-11-14T19:22:48.692Z,7.70
2022-11-14T19:25:38.068Z,8.18
2022-11-14T19:28:29.288Z,7.50
2022-11-14T19:31:16.804Z,7.60
2022-11-14T19:34:03.608Z,7.25
2022-11-14T19:37:00.264Z,7.70
2022-11-14T19:39:49.844Z,10.57
2022-11-14T19:42:37.019Z,8.43
2022-11-14T19:45:24.175Z,7.07
2022-11-14T19:48:11.357Z,6.78
2022-11-14T19:51:05.457Z,7.05
2022-11-14T19:54:08.735Z,7.00
2022-11-14T19:56:57.977Z,6.60
2022-11-14T19:59:44.660Z,7.18
2022-11-14T20:02:31.834Z,6.93
2022-11-14T20:05:19.106Z,6.97
2022-11-14T20:08:05.635Z,7.70
2022-11-14T20:11:01.199Z,6.70
2022-11-14T20:13:48.579Z,6.90
2022-11-14T20:16:37.443Z,6.53
2022-11-14T20:19:24.690Z,7.95
2022-11-14T20:22:11.672Z,6.97
2022-11-14T20:25:00.215Z,6.80
2022-11-14T20:27:49.059Z,7.45
2022-11-14T20:30:39.509Z,6.72
2022-11-14T20:33:26.680Z,7.25
2022-11-14T20:36:15.161Z,6.97
2022-11-14T20:39:01.922Z,7.00
2022-11-14T20:41:49.149Z,6.60
2022-11-14T20:44:37.359Z,8.30
2022-11-14T20:47:24.092Z,8.18
2022-11-14T20:50:11.309Z,8.32
2022-11-14T20:52:58.436Z,7.73
2022-11-14T20:55:44.943Z,22.55
2022-11-14T20:58:32.065Z,11.98
2022-11-14T21:01:20.469Z,14.32
2022-11-14T21:04:07.537Z,13.95
2022-11-14T21:06:54.636Z,8.87
2022-11-14T21:09:41.760Z,9.95
2022-11-14T21:12:28.564Z,15.60
2022-11-14T21:15:16.865Z,19.13
2022-11-14T21:18:05.086Z,17.10
2022-11-14T21:20:59.731Z,41.47
2022-11-14T21:23:48.177Z,13.65
2022-11-14T21:26:37.783Z,13.02
2022-11-14T21:29:24.826Z,16.13
2022-11-14T21:32:11.766Z,9.32
2022-11-14T21:35:05.687Z,9.70
2022-11-14T21:37:56.396Z,18.27
2022-11-14T21:40:43.417Z,20.85
2022-11-14T21:43:31.023Z,21.80
2022-11-14T21:46:18.094Z,11.50
2022-11-14T21:49:05.283Z,24.17
2022-11-14T21:51:56.094Z,15.95
2022-11-14T21:54:43.226Z,14.43
2022-11-14T21:57:30.261Z,8.80
2022-11-14T22:00:17.998Z,7.55
2022-11-14T22:03:22.378Z,9.33
2022-11-14T22:06:09.003Z,9.10
2022-11-14T22:09:00.092Z,7.40
2022-11-14T22:11:47.327Z,7.45
2022-11-14T22:14:34.275Z,7.47
2022-11-14T22:17:22.041Z,6.73
2022-11-14T22:20:10.864Z,6.70
2022-11-14T22:22:57.981Z,7.03
2022-11-14T22:25:54.716Z,7.43
2022-11-14T22:28:42.020Z,7.10
2022-11-14T22:31:28.847Z,6.77
2022-11-14T22:34:16.020Z,6.10
2022-11-14T22:37:02.953Z,6.50
2022-11-14T22:39:50.275Z,6.90
2022-11-14T22:42:38.135Z,6.80
2022-11-14T22:45:25.104Z,6.63
2022-11-14T22:48:12.008Z,7.15
2022-11-14T22:51:01.131Z,6.75
2022-11-14T22:53:49.727Z,6.20
2022-11-14T22:56:36.742Z,6.20
2022-11-14T22:59:26.807Z,6.30
2022-11-14T23:02:14.239Z,7.88
2022-11-14T23:05:01.437Z,6.72
2022-11-14T23:07:48.563Z,5.93
2022-11-14T23:10:35.811Z,6.55
2022-11-14T23:13:23.924Z,5.73
2022-11-14T23:16:15.728Z,5.88
2022-11-14T23:19:04.774Z,6.35
2022-11-14T23:22:05.698Z,6.18
2022-11-14T23:24:53.955Z,7.07
2022-11-14T23:27:43.705Z,6.57
2022-11-14T23:30:35.531Z,6.70
2022-11-14T23:33:26.600Z,6.40
2022-11-14T23:36:13.480Z,5.85
2022-11-14T23:39:00.276Z,6.20
2022-11-14T23:41:47.313Z,6.37
2022-11-14T23:44:34.200Z,5.90
2022-11-14T23:47:20.879Z,6.03
2022-11-14T23:50:10.857Z,5.65
2022-11-14T23:52:57.641Z,5.25
2022-11-14T23:55:44.523Z,5.50
2022-11-14T23:58:31.866Z,6.38
